createdAt,value
2019-01-10T00:00:20.999Z,99555.33
2019-01-10T00:02:48.830Z,99550.31
2019-01-10T00:05:16.857Z,99561.34
2019-01-10T00:07:45.153Z,99563.40
2019-01-10T00:10:14.026Z,99566.51
2019-01-10T00:12:42.110Z,99570.45
2019-01-10T00:15:13.214Z,99572.28
2019-01-10T00:17:41.165Z,99574.09
2019-01-10T00:20:09.750Z,99572.63
2019-01-10T00:22:37.604Z,99577.24
2019-01-10T00:25:07.626Z,99578.33
2019-01-10T00:27:40.713Z,99572.47
2019-01-10T00:30:15.716Z,99571.14
2019-01-10T00:32:43.543Z,99568.96
2019-01-10T00:35:11.445Z,99578.69
2019-01-10T00:37:39.300Z,99594.22
2019-01-10T00:40:09.462Z,99596.75
2019-01-10T00:42:37.253Z,99595.94
2019-01-10T00:45:08.684Z,99598.95
2019-01-10T00:47:36.493Z,99604.66
2019-01-10T00:50:07.096Z,99605.75
2019-01-10T00:52:34.897Z,99606.88
2019-01-10T00:55:03.048Z,99605.02
2019-01-10T00:57:30.853Z,99604.31
2019-01-10T00:59:58.636Z,99606.13
2019-01-10T01:02:26.415Z,99608.23
2019-01-10T01:04:54.220Z,99612.33
2019-01-10T01:07:22.046Z,99617.97
2019-01-10T01:09:49.850Z,99621.38
2019-01-10T01:12:17.607Z,99625.35
2019-01-10T01:14:45.410Z,99624.42
2019-01-10T01:17:13.239Z,99622.75
2019-01-10T01:19:41.031Z,99622.84
2019-01-10T01:22:08.869Z,99623.56
2019-01-10T01:24:36.646Z,99622.22
2019-01-10T01:27:04.457Z,99629.97
2019-01-10T01:29:32.266Z,99634.89
2019-01-10T01:32:00.030Z,99634.58
2019-01-10T01:34:27.894Z,99646.62
2019-01-10T01:36:55.792Z,99639.32
2019-01-10T01:39:23.644Z,99650.36
2019-01-10T01:41:51.426Z,99653.78
2019-01-10T01:44:19.208Z,99656.19
2019-01-10T01:46:47.193Z,99653.23
2019-01-10T01:49:15.000Z,99660.48
2019-01-10T01:51:42.873Z,99663.66
2019-01-10T01:54:10.732Z,99664.31
2019-01-10T01:56:38.520Z,99668.69
2019-01-10T01:59:06.372Z,99674.21
2019-01-10T02:01:34.144Z,99681.03
2019-01-10T02:04:01.953Z,99681.13
2019-01-10T02:06:29.748Z,99681.83
2019-01-10T02:08:57.876Z,99689.63
2019-01-10T02:11:25.944Z,99691.62
2019-01-10T02:13:53.740Z,99691.00
2019-01-10T02:16:21.522Z,99697.01
2019-01-10T02:18:49.342Z,99702.30
2019-01-10T02:21:17.123Z,99708.66
2019-01-10T02:23:44.894Z,99702.44
2019-01-10T02:26:12.691Z,99697.48
2019-01-10T02:28:40.494Z,99706.14
2019-01-10T02:31:08.386Z,99710.67
2019-01-10T02:33:36.194Z,99714.70
2019-01-10T02:36:04.277Z,99716.86
2019-01-10T02:38:32.042Z,99721.23
2019-01-10T02:40:59.845Z,99725.09
2019-01-10T02:43:27.624Z,99730.59
2019-01-10T02:45:55.424Z,99731.33
2019-01-10T02:48:23.220Z,99734.87
2019-01-10T02:50:51.066Z,99734.34
2019-01-10T02:53:18.828Z,99727.19
2019-01-10T02:55:46.621Z,99725.08
2019-01-10T02:58:14.491Z,99731.95
2019-01-10T03:00:42.371Z,99735.93
2019-01-10T03:03:10.119Z,99735.48
2019-01-10T03:05:37.922Z,99726.73
2019-01-10T03:08:05.866Z,99731.77
2019-01-10T03:10:33.750Z,99735.42
2019-01-10T03:13:01.523Z,99732.67
2019-01-10T03:15:29.366Z,99735.70
2019-01-10T03:18:02.439Z,99731.47
2019-01-10T03:20:41.758Z,99732.50
2019-01-10T03:23:09.450Z,99733.84
2019-01-10T03:25:37.322Z,99736.27
2019-01-10T03:28:20.248Z,99730.60
2019-01-10T03:31:02.062Z,99721.70
2019-01-10T03:33:29.849Z,99727.09
2019-01-10T03:35:57.691Z,99724.63
2019-01-10T03:38:25.531Z,99724.98
2019-01-10T03:40:53.308Z,99725.48
2019-01-10T03:43:21.140Z,99719.13
2019-01-10T03:45:48.973Z,99722.68
2019-01-10T03:48:36.205Z,99728.00
2019-01-10T03:51:04.064Z,99723.70
2019-01-10T03:53:31.879Z,99723.05
2019-01-10T03:55:59.664Z,99727.59
2019-01-10T03:58:46.934Z,99733.27
2019-01-10T04:01:16.884Z,99740.08
2019-01-10T04:03:44.652Z,99730.98
2019-01-10T04:06:12.609Z,99736.28
2019-01-10T04:08:40.421Z,99732.50
2019-01-10T04:11:08.211Z,99736.09
2019-01-10T04:13:36.019Z,99736.56
2019-01-10T04:16:11.799Z,99741.73
2019-01-10T04:18:39.600Z,99747.37
2019-01-10T04:21:16.694Z,99755.42
2019-01-10T04:23:36.985Z,99751.68
2019-01-10T04:26:04.792Z,99751.41
2019-01-10T04:28:32.634Z,99760.21
2019-01-10T04:31:00.836Z,99761.76
2019-01-10T04:33:28.574Z,99754.70
2019-01-10T04:35:56.444Z,99766.98
2019-01-10T04:38:27.227Z,99766.34
2019-01-10T04:41:05.345Z,99765.99
2019-01-10T04:43:33.177Z,99771.00
2019-01-10T04:46:01.004Z,99771.98
2019-01-10T04:48:28.845Z,99775.17
2019-01-10T04:51:01.194Z,99769.42
2019-01-10T04:53:29.094Z,99775.09
2019-01-10T04:55:56.851Z,99771.27
2019-01-10T04:58:24.657Z,99778.63
2019-01-10T05:00:52.415Z,99781.74
2019-01-10T05:03:20.217Z,99780.16
2019-01-10T05:05:48.029Z,99778.47
2019-01-10T05:08:15.951Z,99788.08
2019-01-10T05:10:43.738Z,99794.20
2019-01-10T05:13:11.593Z,99792.39
2019-01-10T05:15:39.365Z,99793.13
2019-01-10T05:18:08.242Z,99789.86
2019-01-10T05:20:36.090Z,99792.30
2019-01-10T05:23:03.973Z,99794.61
2019-01-10T05:25:31.719Z,99795.48
2019-01-10T05:28:04.598Z,99792.02
2019-01-10T05:30:32.468Z,99792.52
2019-01-10T05:33:00.296Z,99796.02
2019-01-10T05:35:28.129Z,99799.79
2019-01-10T05:38:01.130Z,99800.98
2019-01-10T05:40:28.969Z,99807.95
2019-01-10T05:42:56.813Z,99807.52
2019-01-10T05:45:24.668Z,99800.64
2019-01-10T05:47:52.555Z,99805.44
2019-01-10T05:50:20.359Z,99805.53
2019-01-10T05:52:48.225Z,99802.68
2019-01-10T05:55:19.200Z,99804.93
2019-01-10T05:57:47.197Z,99809.41
2019-01-10T06:00:25.252Z,99811.17
2019-01-10T06:02:53.209Z,99810.55
2019-01-10T06:05:21.032Z,99807.62
2019-01-10T06:07:49.102Z,99813.84
2019-01-10T06:10:20.420Z,99811.23
2019-01-10T06:12:48.234Z,99809.53
2019-01-10T06:15:16.092Z,99810.24
2019-01-10T06:17:43.872Z,99813.90
2019-01-10T06:20:14.581Z,99809.63
2019-01-10T06:22:42.422Z,99813.44
2019-01-10T06:25:17.030Z,99822.54
2019-01-10T06:28:04.085Z,99816.80
2019-01-10T06:30:31.968Z,99824.84
2019-01-10T06:33:00.085Z,99833.45
2019-01-10T06:35:29.683Z,99837.23
2019-01-10T06:37:57.808Z,99835.50
2019-01-10T06:40:25.702Z,99846.30
2019-01-10T06:42:53.536Z,99849.52
2019-01-10T06:45:21.473Z,99852.19
2019-01-10T06:47:49.579Z,99859.65
2019-01-10T06:50:17.556Z,99850.59
2019-01-10T06:52:45.481Z,99856.55
2019-01-10T06:55:13.313Z,99860.30
2019-01-10T06:57:41.126Z,99871.94
2019-01-10T07:00:14.702Z,99880.42
2019-01-10T07:02:42.569Z,99884.78
2019-01-10T07:05:11.221Z,99883.44
2019-01-10T07:07:39.287Z,99890.16
2019-01-10T07:10:13.264Z,99893.12
2019-01-10T07:12:41.073Z,99897.30
2019-01-10T07:15:08.930Z,99898.38
2019-01-10T07:17:36.766Z,99905.09
2019-01-10T07:20:05.830Z,99906.53
2019-01-10T07:22:33.643Z,99910.62
2019-01-10T07:25:01.481Z,99911.31
2019-01-10T07:27:29.393Z,99915.49
2019-01-10T07:29:59.504Z,99923.48
2019-01-10T07:32:27.084Z,99928.66
2019-01-10T07:34:59.254Z,99930.39
2019-01-10T07:37:27.144Z,99930.17
2019-01-10T07:39:54.987Z,99934.67
2019-01-10T07:42:22.811Z,99940.66
2019-01-10T07:44:50.625Z,99940.44
2019-01-10T07:47:18.509Z,99936.50
2019-01-10T07:49:46.344Z,99943.06
2019-01-10T07:52:14.125Z,99945.94
2019-01-10T07:54:42.538Z,99947.17
2019-01-10T07:57:10.446Z,99946.89
2019-01-10T07:59:57.728Z,99947.59
2019-01-10T08:02:25.501Z,99955.16
2019-01-10T08:04:53.303Z,99961.18
2019-01-10T08:07:21.232Z,99963.95
2019-01-10T08:09:49.352Z,99965.09
2019-01-10T08:12:17.100Z,99973.70
2019-01-10T08:14:44.906Z,99977.39
2019-01-10T08:17:16.206Z,99984.92
2019-01-10T08:19:42.642Z,99982.09
2019-01-10T08:22:10.392Z,99988.50
2019-01-10T08:24:38.205Z,99992.30
2019-01-10T08:27:06.115Z,99992.13
2019-01-10T08:29:33.914Z,99990.46
2019-01-10T08:32:01.723Z,99990.72
2019-01-10T08:34:29.551Z,99993.66
2019-01-10T08:37:12.539Z,99994.33
2019-01-10T08:39:40.336Z,99987.88
2019-01-10T08:42:08.101Z,99989.23
2019-01-10T08:44:35.946Z,99994.37
2019-01-10T08:47:03.719Z,99998.27
2019-01-10T08:49:31.511Z,100004.22
2019-01-10T08:51:59.294Z,100006.81
2019-01-10T08:54:27.071Z,100001.59
2019-01-10T08:57:04.998Z,100004.12
2019-01-10T08:59:32.781Z,100011.52
2019-01-10T09:02:00.563Z,100019.66
2019-01-10T09:04:28.349Z,100014.48
2019-01-10T09:06:56.144Z,100015.12
2019-01-10T09:09:23.929Z,100024.41
2019-01-10T09:11:51.756Z,100023.25
2019-01-10T09:14:19.537Z,100022.56
2019-01-10T09:16:47.499Z,100027.01
2019-01-10T09:19:15.317Z,100029.52
2019-01-10T09:21:43.105Z,100022.50
2019-01-10T09:24:10.897Z,100021.71
2019-01-10T09:26:38.944Z,100033.61
2019-01-10T09:29:06.736Z,100035.59
2019-01-10T09:31:34.601Z,100037.13
2019-01-10T09:34:02.360Z,100036.38
2019-01-10T09:36:33.042Z,100034.85
2019-01-10T09:39:00.817Z,100042.33
2019-01-10T09:41:28.612Z,100047.17
2019-01-10T09:43:56.386Z,100055.70
2019-01-10T09:46:29.466Z,100059.16
2019-01-10T09:48:57.228Z,100066.05
2019-01-10T09:51:25.030Z,100066.39
2019-01-10T09:53:52.819Z,100069.28
2019-01-10T09:56:20.680Z,100074.46
2019-01-10T09:58:48.468Z,100079.02
2019-01-10T10:01:18.299Z,100076.10
2019-01-10T10:03:46.092Z,100074.80
2019-01-10T10:06:18.930Z,100081.63
2019-01-10T10:08:46.738Z,100079.16
2019-01-10T10:11:14.621Z,100082.77
2019-01-10T10:13:42.421Z,100078.05
2019-01-10T10:16:29.932Z,100076.39
2019-01-10T10:18:57.723Z,100081.45
2019-01-10T10:21:25.482Z,100082.78
2019-01-10T10:23:53.289Z,100087.81
2019-01-10T10:26:21.113Z,100088.31
2019-01-10T10:28:48.909Z,100086.74
2019-01-10T10:31:16.824Z,100087.47
2019-01-10T10:33:44.615Z,100092.65
2019-01-10T10:36:12.428Z,100092.38
2019-01-10T10:38:40.245Z,100098.22
2019-01-10T10:41:08.116Z,100095.42
2019-01-10T10:43:35.886Z,100094.72
2019-01-10T10:46:04.004Z,100091.25
2019-01-10T10:48:31.847Z,100091.66
2019-01-10T10:50:59.687Z,100084.16
2019-01-10T10:53:27.535Z,100088.59
2019-01-10T10:55:55.380Z,100090.94
2019-01-10T10:58:23.145Z,100094.41
2019-01-10T11:00:50.937Z,100094.58
2019-01-10T11:03:18.754Z,100085.80
2019-01-10T11:05:46.581Z,100101.34
2019-01-10T11:08:24.604Z,100094.25
2019-01-10T11:10:52.409Z,100100.88
2019-01-10T11:13:20.201Z,100092.77
2019-01-10T11:15:48.281Z,100091.27
2019-01-10T11:18:16.245Z,100092.06
2019-01-10T11:20:44.021Z,100085.90
2019-01-10T11:23:11.836Z,100083.80
2019-01-10T11:25:39.612Z,100088.03
2019-01-10T11:28:07.725Z,100094.91
2019-01-10T11:30:35.501Z,100091.67
2019-01-10T11:33:22.759Z,100090.23
2019-01-10T11:35:50.500Z,100091.83
2019-01-10T11:38:18.284Z,100088.41
2019-01-10T11:40:46.095Z,100087.53
2019-01-10T11:43:13.909Z,100091.85
2019-01-10T11:45:41.683Z,100087.73
2019-01-10T11:48:09.572Z,100085.27
2019-01-10T11:50:37.320Z,100085.33
2019-01-10T11:53:05.093Z,100079.86
2019-01-10T11:55:32.841Z,100086.50
2019-01-10T11:58:00.772Z,100084.66
2019-01-10T12:00:31.097Z,100086.61
2019-01-10T12:03:04.118Z,100088.08
2019-01-10T12:05:32.048Z,100087.81
2019-01-10T12:07:59.880Z,100088.41
2019-01-10T12:10:27.716Z,100089.23
2019-01-10T12:12:55.565Z,100087.85
2019-01-10T12:15:23.402Z,100084.14
2019-01-10T12:18:21.641Z,100085.05
2019-01-10T12:20:49.494Z,100082.48
2019-01-10T12:23:17.341Z,100082.92
2019-01-10T12:25:45.234Z,100084.49
2019-01-10T12:28:23.123Z,100082.55
2019-01-10T12:30:50.962Z,100083.52
2019-01-10T12:33:18.777Z,100083.17
2019-01-10T12:35:46.633Z,100083.69
2019-01-10T12:38:14.423Z,100082.49
2019-01-10T12:40:42.255Z,100083.89
2019-01-10T12:43:10.018Z,100086.31
2019-01-10T12:45:37.808Z,100080.17
2019-01-10T12:48:05.826Z,100080.34
2019-01-10T12:50:33.780Z,100079.16
2019-01-10T12:53:10.772Z,100086.59
2019-01-10T12:55:39.006Z,100086.94
2019-01-10T12:58:07.611Z,100089.70
2019-01-10T13:00:35.377Z,100097.02
2019-01-10T13:03:03.293Z,100097.98
2019-01-10T13:05:31.202Z,100097.39
2019-01-10T13:08:03.806Z,100102.19
2019-01-10T13:10:29.042Z,100097.80
2019-01-10T13:12:56.811Z,100104.16
2019-01-10T13:15:26.766Z,100104.50
2019-01-10T13:17:54.683Z,100102.16
2019-01-10T13:20:22.535Z,100108.90
2019-01-10T13:22:50.418Z,100109.44
2019-01-10T13:25:19.260Z,100115.02
2019-01-10T13:27:48.242Z,100120.75
2019-01-10T13:30:26.420Z,100116.36
2019-01-10T13:32:55.141Z,100119.13
2019-01-10T13:35:23.757Z,100117.78
2019-01-10T13:37:52.426Z,100117.19
2019-01-10T13:40:20.954Z,100120.74
2019-01-10T13:42:49.466Z,100122.69
2019-01-10T13:45:18.582Z,100121.66
2019-01-10T13:47:48.706Z,100122.56
2019-01-10T13:50:24.296Z,100125.97
2019-01-10T13:52:52.818Z,100127.20
2019-01-10T13:55:21.146Z,100127.60
2019-01-10T13:58:04.833Z,100127.52
2019-01-10T14:00:35.709Z,100127.95
2019-01-10T14:03:03.304Z,100133.73
2019-01-10T14:05:31.711Z,100136.72
2019-01-10T14:08:05.592Z,100131.89
2019-01-10T14:10:33.797Z,100136.37
2019-01-10T14:13:02.165Z,100142.98
2019-01-10T14:15:34.459Z,100138.31
2019-01-10T14:18:03.509Z,100140.73
2019-01-10T14:20:31.868Z,100134.90
2019-01-10T14:23:00.209Z,100137.91
2019-01-10T14:25:28.740Z,100136.93
2019-01-10T14:27:59.890Z,100143.35
2019-01-10T14:30:31.583Z,100142.38
2019-01-10T14:32:59.650Z,100144.50
2019-01-10T14:35:28.010Z,100150.92
2019-01-10T14:37:55.813Z,100150.62
2019-01-10T14:40:23.693Z,100145.84
2019-01-10T14:42:52.048Z,100149.23
2019-01-10T14:45:20.442Z,100149.36
2019-01-10T14:47:48.721Z,100155.96
2019-01-10T14:50:17.585Z,100153.45
2019-01-10T14:52:45.827Z,100160.47
2019-01-10T14:55:14.578Z,100167.28
2019-01-10T14:57:42.926Z,100165.05
2019-01-10T15:00:16.559Z,100171.17
2019-01-10T15:02:44.973Z,100171.81
2019-01-10T15:05:13.507Z,100173.52
2019-01-10T15:07:41.945Z,100172.53
2019-01-10T15:10:10.574Z,100173.96
2019-01-10T15:12:39.518Z,100176.89
2019-01-10T15:15:12.004Z,100180.75
2019-01-10T15:17:40.177Z,100185.84
2019-01-10T15:20:14.684Z,100187.02
2019-01-10T15:22:42.983Z,100190.70
2019-01-10T15:25:11.404Z,100187.11
2019-01-10T15:27:40.414Z,100189.57
2019-01-10T15:30:28.412Z,100192.14
2019-01-10T15:32:56.775Z,100192.87
2019-01-10T15:35:25.261Z,100197.38
2019-01-10T15:37:53.044Z,100185.01
2019-01-10T15:40:30.209Z,100200.14
2019-01-10T15:42:58.787Z,100203.14
2019-01-10T15:45:27.042Z,100198.92
2019-01-10T15:47:55.321Z,100193.20
2019-01-10T15:50:23.195Z,100205.72
2019-01-10T15:52:51.561Z,100202.12
2019-01-10T15:55:20.456Z,100213.11
2019-01-10T15:57:48.904Z,100190.39
2019-01-10T16:00:20.614Z,100218.36
2019-01-10T16:02:48.790Z,100220.16
2019-01-10T16:05:17.179Z,100215.11
2019-01-10T16:07:45.694Z,100223.60
2019-01-10T16:10:15.478Z,100223.50
2019-01-10T16:12:43.374Z,100226.40
2019-01-10T16:15:15.105Z,100226.59
2019-01-10T16:17:43.059Z,100225.20
2019-01-10T16:20:11.186Z,100227.77
2019-01-10T16:22:39.107Z,100227.57
2019-01-10T16:25:08.006Z,100223.67
2019-01-10T16:27:35.961Z,100226.11
2019-01-10T16:30:09.111Z,100224.19
2019-01-10T16:32:36.929Z,100221.78
2019-01-10T16:35:05.844Z,100224.22
2019-01-10T16:37:33.733Z,100230.48
2019-01-10T16:40:01.520Z,100236.30
2019-01-10T16:42:29.315Z,100235.46
2019-01-10T16:44:57.115Z,100243.98
2019-01-10T16:47:24.929Z,100241.94
2019-01-10T16:49:52.771Z,100236.38
2019-01-10T16:52:20.541Z,100241.13
2019-01-10T16:54:48.359Z,100240.34
2019-01-10T16:57:16.097Z,100243.20
2019-01-10T16:59:43.928Z,100239.10
2019-01-10T17:02:11.721Z,100243.00
2019-01-10T17:04:39.507Z,100246.08
2019-01-10T17:07:07.286Z,100211.26
2019-01-10T17:09:35.072Z,100250.05
2019-01-10T17:12:02.940Z,100247.88
2019-01-10T17:14:30.699Z,100244.39
2019-01-10T17:16:58.648Z,100245.34
2019-01-10T17:19:26.459Z,100237.89
2019-01-10T17:21:54.315Z,100243.23
2019-01-10T17:24:22.171Z,100249.11
2019-01-10T17:26:50.283Z,100247.52
2019-01-10T17:29:18.084Z,100253.34
2019-01-10T17:31:45.888Z,100252.91
2019-01-10T17:34:13.711Z,100255.54
2019-01-10T17:36:41.535Z,100256.09
2019-01-10T17:39:09.441Z,100261.20
2019-01-10T17:41:37.287Z,100263.67
2019-01-10T17:44:05.133Z,100268.32
2019-01-10T17:46:32.957Z,100269.10
2019-01-10T17:49:00.767Z,100271.24
2019-01-10T17:51:28.519Z,100272.05
2019-01-10T17:53:56.407Z,100275.41
2019-01-10T17:56:24.367Z,100274.59
2019-01-10T17:58:52.172Z,100268.32
2019-01-10T18:01:19.968Z,100272.31
2019-01-10T18:03:47.769Z,100279.23
2019-01-10T18:06:21.866Z,100280.08
2019-01-10T18:08:49.672Z,100285.37
2019-01-10T18:11:17.579Z,100286.77
2019-01-10T18:13:45.375Z,100287.25
2019-01-10T18:16:13.233Z,100282.38
2019-01-10T18:18:41.040Z,100282.80
2019-01-10T18:21:14.790Z,100282.44
2019-01-10T18:23:57.993Z,100282.95
2019-01-10T18:26:26.102Z,100283.84
2019-01-10T18:28:53.923Z,100283.64
2019-01-10T18:31:21.737Z,100272.98
2019-01-10T18:33:49.571Z,100276.14
2019-01-10T18:36:17.477Z,100277.66
2019-01-10T18:38:45.337Z,100277.66
2019-01-10T18:41:13.134Z,100274.86
2019-01-10T18:43:41.276Z,100277.64
2019-01-10T18:46:09.146Z,100275.39
2019-01-10T18:48:39.792Z,100272.89
2019-01-10T18:51:06.685Z,100272.75
2019-01-10T18:53:34.500Z,100266.96
2019-01-10T18:56:02.289Z,100272.10
2019-01-10T18:58:30.071Z,100269.23
2019-01-10T19:00:57.937Z,100269.67
2019-01-10T19:03:27.795Z,100266.91
2019-01-10T19:05:55.635Z,100269.80
2019-01-10T19:08:23.402Z,100276.54
2019-01-10T19:10:51.235Z,100286.28
2019-01-10T19:13:19.064Z,100286.31
2019-01-10T19:15:46.872Z,100288.52
2019-01-10T19:18:14.748Z,100290.23
2019-01-10T19:20:42.907Z,100293.89
2019-01-10T19:23:11.576Z,100304.72
2019-01-10T19:25:39.759Z,100311.73
2019-01-10T19:28:08.020Z,100313.65
2019-01-10T19:30:38.967Z,100313.52
2019-01-10T19:33:07.392Z,100315.80
2019-01-10T19:35:35.234Z,100320.41
2019-01-10T19:38:08.418Z,100271.61
2019-01-10T19:40:36.258Z,100314.61
2019-01-10T19:43:04.148Z,100314.27
2019-01-10T19:45:31.966Z,100312.92
2019-01-10T19:47:59.827Z,100317.67
2019-01-10T19:50:27.765Z,100326.14
2019-01-10T19:52:55.718Z,100327.75
2019-01-10T19:55:23.726Z,100330.47
2019-01-10T19:57:51.808Z,100330.60
2019-01-10T20:00:35.517Z,100324.81
2019-01-10T20:03:03.593Z,100324.47
2019-01-10T20:05:31.449Z,100325.66
2019-01-10T20:08:04.558Z,100324.86
2019-01-10T20:10:32.483Z,100326.80
2019-01-10T20:13:00.339Z,100327.62
2019-01-10T20:15:28.131Z,100326.53
2019-01-10T20:17:56.268Z,100325.86
2019-01-10T20:20:28.197Z,100326.29
2019-01-10T20:22:57.298Z,100335.67
2019-01-10T20:25:25.263Z,100330.73
2019-01-10T20:27:53.044Z,100329.92
2019-01-10T20:30:21.007Z,100338.45
2019-01-10T20:32:48.802Z,100340.41
2019-01-10T20:35:16.633Z,100343.78
2019-01-10T20:37:44.496Z,100342.28
2019-01-10T20:40:12.662Z,100336.94
2019-01-10T20:42:40.440Z,100337.62
2019-01-10T20:45:08.355Z,100340.42
2019-01-10T20:47:36.699Z,100346.14
2019-01-10T20:50:06.778Z,100340.63
2019-01-10T20:52:34.657Z,100336.22
2019-01-10T20:55:03.093Z,100339.54
2019-01-10T20:57:31.027Z,100335.13
2019-01-10T20:59:58.922Z,100336.56
2019-01-10T21:02:26.769Z,100330.57
2019-01-10T21:04:54.588Z,100334.09
2019-01-10T21:07:22.556Z,100343.34
2019-01-10T21:09:50.344Z,100339.23
2019-01-10T21:12:18.321Z,100343.23
2019-01-10T21:14:46.143Z,100341.42
2019-01-10T21:17:14.046Z,100344.70
2019-01-10T21:19:41.971Z,100343.53
2019-01-10T21:22:09.792Z,100341.88
2019-01-10T21:24:57.077Z,100334.44
2019-01-10T21:27:25.208Z,100340.39
2019-01-10T21:29:53.056Z,100342.05
2019-01-10T21:32:20.935Z,100342.47
2019-01-10T21:34:48.731Z,100340.41
2019-01-10T21:37:17.959Z,100338.98
2019-01-10T21:39:45.769Z,100347.50
2019-01-10T21:42:13.608Z,100346.77
2019-01-10T21:44:41.431Z,100347.54
2019-01-10T21:47:09.453Z,100344.66
2019-01-10T21:49:37.261Z,100340.45
2019-01-10T21:52:05.133Z,100329.14
2019-01-10T21:54:34.808Z,100325.76
2019-01-10T21:57:02.674Z,100334.79
2019-01-10T21:59:30.457Z,100340.19
2019-01-10T22:01:58.338Z,100338.49
2019-01-10T22:04:26.103Z,100331.16
2019-01-10T22:06:54.001Z,100329.38
2019-01-10T22:09:21.837Z,100333.04
2019-01-10T22:11:49.647Z,100342.52
2019-01-10T22:14:17.477Z,100343.08
2019-01-10T22:16:45.422Z,100343.44
2019-01-10T22:19:16.614Z,100338.61
2019-01-10T22:21:43.265Z,100333.69
2019-01-10T22:24:11.234Z,100339.24
2019-01-10T22:26:39.069Z,100337.26
2019-01-10T22:29:07.909Z,100335.23
2019-01-10T22:31:35.725Z,100324.09
2019-01-10T22:34:03.494Z,100325.35
2019-01-10T22:36:31.297Z,100324.58
2019-01-10T22:38:59.117Z,100319.35
2019-01-10T22:41:27.171Z,100324.14
2019-01-10T22:43:55.231Z,100324.83
2019-01-10T22:46:23.025Z,100327.59
2019-01-10T22:48:50.826Z,100318.56
2019-01-10T22:51:38.059Z,100327.14
2019-01-10T22:54:05.914Z,100331.19
2019-01-10T22:56:33.836Z,100330.98
2019-01-10T22:59:01.814Z,100334.06
2019-01-10T23:01:52.832Z,100329.56
2019-01-10T23:04:34.721Z,100330.30
2019-01-10T23:07:02.753Z,100330.58
2019-01-10T23:09:30.533Z,100326.08
2019-01-10T23:11:58.344Z,100331.95
2019-01-10T23:14:26.251Z,100332.08
2019-01-10T23:17:09.089Z,100338.32
2019-01-10T23:19:49.178Z,100335.89
2019-01-10T23:22:17.498Z,100334.55
2019-01-10T23:24:54.147Z,100333.58
2019-01-10T23:27:22.295Z,100332.08
2019-01-10T23:29:50.087Z,100333.05
2019-01-10T23:32:18.031Z,100331.18
2019-01-10T23:34:48.291Z,100324.45
2019-01-10T23:37:21.875Z,100320.40
2019-01-10T23:39:49.628Z,100319.75
2019-01-10T23:42:17.476Z,100314.78
2019-01-10T23:44:45.285Z,100318.02
2019-01-10T23:47:13.306Z,100317.31
2019-01-10T23:49:41.064Z,100313.18
2019-01-10T23:52:08.866Z,100311.16
2019-01-10T23:54:36.687Z,100313.34
2019-01-10T23:57:04.946Z,100312.70
2019-01-10T23:59:32.741Z,100306.90
